sensor_id;sensor_type;location;lat;lon;timestamp;P1;durP1;ratioP1;P2;durP2;ratioP2
21890;SDS011;11110;52.386;16.940;2023-01-15T00:02:22;16.73;;;4.07;;
21890;SDS011;11110;52.386;16.940;2023-01-15T00:04:51;14.47;;;3.40;;
21890;SDS011;11110;52.386;16.940;2023-01-15T00:07:20;24.67;;;4.93;;
21890;SDS011;11110;52.386;16.940;2023-01-15T00:09:48;20.97;;;4.30;;
21890;SDS011;11110;52.386;16.940;2023-01-15T00:12:17;11.47;;;3.03;;
21890;SDS011;11110;52.386;16.940;2023-01-15T00:14:47;16.93;;;4.03;;
21890;SDS011;11110;52.386;16.940;2023-01-15T00:17:16;16.47;;;3.67;;
21890;SDS011;11110;52.386;16.940;2023-01-15T00:19:45;18.27;;;3.93;;
21890;SDS011;11110;52.386;16.940;2023-01-15T00:22:14;13.70;;;3.60;;
21890;SDS011;11110;52.386;16.940;2023-01-15T00:24:42;20.27;;;4.10;;
21890;SDS011;11110;52.386;16.940;2023-01-15T00:27:30;17.77;;;3.90;;
21890;SDS011;11110;52.386;16.940;2023-01-15T00:30:11;17.53;;;3.77;;
21890;SDS011;11110;52.386;16.940;2023-01-15T00:32:42;14.40;;;3.50;;
21890;SDS011;11110;52.386;16.940;2023-01-15T00:35:12;14.33;;;3.57;;
21890;SDS011;11110;52.386;16.940;2023-01-15T00:37:42;12.83;;;3.20;;
21890;SDS011;11110;52.386;16.940;2023-01-15T00:40:11;13.43;;;3.10;;
21890;SDS011;11110;52.386;16.940;2023-01-15T00:42:41;15.20;;;3.40;;
21890;SDS011;11110;52.386;16.940;2023-01-15T00:45:20;13.63;;;2.87;;
21890;SDS011;11110;52.386;16.940;2023-01-15T00:47:50;13.23;;;3.33;;
21890;SDS011;11110;52.386;16.940;2023-01-15T00:50:19;18.43;;;3.43;;
21890;SDS011;11110;52.386;16.940;2023-01-15T00:52:48;13.57;;;3.13;;
21890;SDS011;11110;52.386;16.940;2023-01-15T00:55:16;12.07;;;2.90;;
21890;SDS011;11110;52.386;16.940;2023-01-15T00:57:45;12.63;;;2.63;;
21890;SDS011;11110;52.386;16.940;2023-01-15T01:00:14;11.13;;;2.67;;
21890;SDS011;11110;52.386;16.940;2023-01-15T01:02:44;14.80;;;3.17;;
21890;SDS011;11110;52.386;16.940;2023-01-15T01:05:13;10.90;;;2.67;;
21890;SDS011;11110;52.386;16.940;2023-01-15T01:07:42;10.33;;;2.67;;
21890;SDS011;11110;52.386;16.940;2023-01-15T01:10:10;12.60;;;2.90;;
21890;SDS011;11110;52.386;16.940;2023-01-15T01:12:39;12.03;;;2.90;;
21890;SDS011;11110;52.386;16.940;2023-01-15T01:15:08;20.90;;;5.13;;
21890;SDS011;11110;52.386;16.940;2023-01-15T01:17:37;14.60;;;3.07;;
21890;SDS011;11110;52.386;16.940;2023-01-15T01:20:08;12.53;;;3.00;;
21890;SDS011;11110;52.386;16.940;2023-01-15T01:22:39;11.40;;;2.70;;
21890;SDS011;11110;52.386;16.940;2023-01-15T01:25:08;15.50;;;3.40;;
21890;SDS011;11110;52.386;16.940;2023-01-15T01:27:37;11.70;;;2.70;;
21890;SDS011;11110;52.386;16.940;2023-01-15T01:30:06;11.43;;;2.70;;
21890;SDS011;11110;52.386;16.940;2023-01-15T01:32:35;11.70;;;2.80;;
21890;SDS011;11110;52.386;16.940;2023-01-15T01:35:04;12.37;;;2.73;;
21890;SDS011;11110;52.386;16.940;2023-01-15T01:37:35;11.70;;;2.50;;
21890;SDS011;11110;52.386;16.940;2023-01-15T01:40:04;10.47;;;2.70;;
21890;SDS011;11110;52.386;16.940;2023-01-15T01:42:33;13.83;;;3.20;;
21890;SDS011;11110;52.386;16.940;2023-01-15T01:45:04;12.20;;;2.43;;
21890;SDS011;11110;52.386;16.940;2023-01-15T01:47:35;14.20;;;3.03;;
21890;SDS011;11110;52.386;16.940;2023-01-15T01:50:06;12.93;;;2.67;;
21890;SDS011;11110;52.386;16.940;2023-01-15T01:52:41;10.50;;;2.60;;
21890;SDS011;11110;52.386;16.940;2023-01-15T01:55:12;14.30;;;2.83;;
21890;SDS011;11110;52.386;16.940;2023-01-15T01:57:43;10.93;;;2.57;;
21890;SDS011;11110;52.386;16.940;2023-01-15T02:00:13;10.43;;;2.60;;
21890;SDS011;11110;52.386;16.940;2023-01-15T02:02:43;12.70;;;2.80;;
21890;SDS011;11110;52.386;16.940;2023-01-15T02:05:17;9.90;;;2.37;;
21890;SDS011;11110;52.386;16.940;2023-01-15T02:07:54;11.17;;;2.80;;
21890;SDS011;11110;52.386;16.940;2023-01-15T02:10:23;11.20;;;2.70;;
21890;SDS011;11110;52.386;16.940;2023-01-15T02:12:54;9.27;;;2.07;;
21890;SDS011;11110;52.386;16.940;2023-01-15T02:15:30;12.63;;;2.80;;
21890;SDS011;11110;52.386;16.940;2023-01-15T02:18:03;8.90;;;2.30;;
21890;SDS011;11110;52.386;16.940;2023-01-15T02:20:38;11.13;;;2.40;;
21890;SDS011;11110;52.386;16.940;2023-01-15T02:23:18;12.60;;;2.80;;
21890;SDS011;11110;52.386;16.940;2023-01-15T02:26:04;11.93;;;2.43;;
21890;SDS011;11110;52.386;16.940;2023-01-15T02:29:20;9.83;;;2.23;;
21890;SDS011;11110;52.386;16.940;2023-01-15T02:31:56;9.77;;;2.40;;
21890;SDS011;11110;52.386;16.940;2023-01-15T02:34:29;10.23;;;2.27;;
21890;SDS011;11110;52.386;16.940;2023-01-15T02:37:06;14.70;;;2.93;;
21890;SDS011;11110;52.386;16.940;2023-01-15T02:39:39;12.23;;;2.70;;
21890;SDS011;11110;52.386;16.940;2023-01-15T02:42:12;11.27;;;2.67;;
21890;SDS011;11110;52.386;16.940;2023-01-15T02:44:47;12.77;;;2.67;;
21890;SDS011;11110;52.386;16.940;2023-01-15T02:47:19;14.43;;;3.47;;
21890;SDS011;11110;52.386;16.940;2023-01-15T02:49:54;11.43;;;2.50;;
21890;SDS011;11110;52.386;16.940;2023-01-15T02:52:33;9.90;;;2.30;;
21890;SDS011;11110;52.386;16.940;2023-01-15T02:55:06;11.93;;;2.77;;
21890;SDS011;11110;52.386;16.940;2023-01-15T02:57:43;12.17;;;2.57;;
21890;SDS011;11110;52.386;16.940;2023-01-15T03:00:18;8.80;;;2.03;;
21890;SDS011;11110;52.386;16.940;2023-01-15T03:02:50;11.10;;;2.60;;
21890;SDS011;11110;52.386;16.940;2023-01-15T03:05:27;8.80;;;2.33;;
21890;SDS011;11110;52.386;16.940;2023-01-15T03:08:02;12.40;;;2.77;;
21890;SDS011;11110;52.386;16.940;2023-01-15T03:10:37;7.07;;;1.93;;
21890;SDS011;11110;52.386;16.940;2023-01-15T03:13:14;10.70;;;2.53;;
21890;SDS011;11110;52.386;16.940;2023-01-15T03:15:52;9.93;;;2.53;;
21890;SDS011;11110;52.386;16.940;2023-01-15T03:18:46;9.70;;;2.33;;
21890;SDS011;11110;52.386;16.940;2023-01-15T03:21:20;9.37;;;2.53;;
21890;SDS011;11110;52.386;16.940;2023-01-15T03:23:54;8.07;;;2.40;;
21890;SDS011;11110;52.386;16.940;2023-01-15T03:26:25;14.83;;;3.10;;
21890;SDS011;11110;52.386;16.940;2023-01-15T03:28:55;10.03;;;2.47;;
21890;SDS011;11110;52.386;16.940;2023-01-15T03:31:26;7.87;;;2.07;;
21890;SDS011;11110;52.386;16.940;2023-01-15T03:33:57;13.43;;;3.03;;
21890;SDS011;11110;52.386;16.940;2023-01-15T03:36:26;8.83;;;2.13;;
21890;SDS011;11110;52.386;16.940;2023-01-15T03:39:00;9.80;;;2.10;;
21890;SDS011;11110;52.386;16.940;2023-01-15T03:41:49;8.13;;;2.10;;
21890;SDS011;11110;52.386;16.940;2023-01-15T03:44:31;14.03;;;3.63;;
21890;SDS011;11110;52.386;16.940;2023-01-15T03:47:11;8.17;;;2.23;;
21890;SDS011;11110;52.386;16.940;2023-01-15T03:49:52;14.00;;;3.53;;
21890;SDS011;11110;52.386;16.940;2023-01-15T03:52:40;10.87;;;2.43;;
21890;SDS011;11110;52.386;16.940;2023-01-15T03:55:15;12.60;;;2.83;;
21890;SDS011;11110;52.386;16.940;2023-01-15T03:58:04;11.37;;;2.63;;
21890;SDS011;11110;52.386;16.940;2023-01-15T04:00:41;12.30;;;2.87;;
21890;SDS011;11110;52.386;16.940;2023-01-15T04:03:17;8.13;;;2.07;;
21890;SDS011;11110;52.386;16.940;2023-01-15T04:05:47;11.90;;;2.80;;
21890;SDS011;11110;52.386;16.940;2023-01-15T04:08:19;9.20;;;2.70;;
21890;SDS011;11110;52.386;16.940;2023-01-15T04:10:50;10.97;;;2.40;;
21890;SDS011;11110;52.386;16.940;2023-01-15T04:13:21;9.80;;;2.50;;
21890;SDS011;11110;52.386;16.940;2023-01-15T04:15:51;8.77;;;2.00;;
21890;SDS011;11110;52.386;16.940;2023-01-15T04:18:22;15.83;;;3.23;;
21890;SDS011;11110;52.386;16.940;2023-01-15T04:20:50;12.90;;;3.00;;
21890;SDS011;11110;52.386;16.940;2023-01-15T04:23:20;6.40;;;2.07;;
21890;SDS011;11110;52.386;16.940;2023-01-15T04:25:49;11.83;;;2.73;;
21890;SDS011;11110;52.386;16.940;2023-01-15T04:28:18;20.37;;;4.03;;
21890;SDS011;11110;52.386;16.940;2023-01-15T04:30:47;12.43;;;2.97;;
21890;SDS011;11110;52.386;16.940;2023-01-15T04:33:16;8.17;;;2.33;;
21890;SDS011;11110;52.386;16.940;2023-01-15T04:35:46;15.90;;;3.33;;
21890;SDS011;11110;52.386;16.940;2023-01-15T04:38:15;15.37;;;3.10;;
21890;SDS011;11110;52.386;16.940;2023-01-15T04:40:45;10.17;;;2.43;;
21890;SDS011;11110;52.386;16.940;2023-01-15T04:43:30;9.07;;;2.30;;
21890;SDS011;11110;52.386;16.940;2023-01-15T04:46:19;9.50;;;2.33;;
21890;SDS011;11110;52.386;16.940;2023-01-15T04:48:48;11.93;;;2.90;;
21890;SDS011;11110;52.386;16.940;2023-01-15T04:51:18;8.70;;;2.33;;
21890;SDS011;11110;52.386;16.940;2023-01-15T04:53:47;9.87;;;2.73;;
21890;SDS011;11110;52.386;16.940;2023-01-15T04:56:16;13.43;;;3.30;;
21890;SDS011;11110;52.386;16.940;2023-01-15T04:58:45;11.03;;;2.73;;
21890;SDS011;11110;52.386;16.940;2023-01-15T05:01:14;14.70;;;3.00;;
21890;SDS011;11110;52.386;16.940;2023-01-15T05:03:45;10.33;;;2.60;;
21890;SDS011;11110;52.386;16.940;2023-01-15T05:06:13;8.40;;;1.93;;
21890;SDS011;11110;52.386;16.940;2023-01-15T05:08:45;14.67;;;3.17;;
21890;SDS011;11110;52.386;16.940;2023-01-15T05:11:14;13.33;;;2.87;;
21890;SDS011;11110;52.386;16.940;2023-01-15T05:13:42;11.60;;;2.77;;
21890;SDS011;11110;52.386;16.940;2023-01-15T05:16:12;9.60;;;2.53;;
21890;SDS011;11110;52.386;16.940;2023-01-15T05:18:43;9.87;;;2.43;;
21890;SDS011;11110;52.386;16.940;2023-01-15T05:21:13;12.27;;;2.60;;
21890;SDS011;11110;52.386;16.940;2023-01-15T05:23:47;12.37;;;2.97;;
21890;SDS011;11110;52.386;16.940;2023-01-15T05:26:17;8.33;;;2.17;;
21890;SDS011;11110;52.386;16.940;2023-01-15T05:28:47;8.83;;;2.30;;
21890;SDS011;11110;52.386;16.940;2023-01-15T05:31:17;13.23;;;3.17;;
21890;SDS011;11110;52.386;16.940;2023-01-15T05:33:46;7.73;;;2.10;;
21890;SDS011;11110;52.386;16.940;2023-01-15T05:36:18;9.83;;;2.37;;
21890;SDS011;11110;52.386;16.940;2023-01-15T05:38:49;10.07;;;2.70;;
21890;SDS011;11110;52.386;16.940;2023-01-15T05:41:19;11.37;;;2.77;;
21890;SDS011;11110;52.386;16.940;2023-01-15T05:44:07;9.47;;;2.77;;
21890;SDS011;11110;52.386;16.940;2023-01-15T05:46:38;10.93;;;2.63;;
21890;SDS011;11110;52.386;16.940;2023-01-15T05:49:09;9.90;;;2.60;;
21890;SDS011;11110;52.386;16.940;2023-01-15T05:51:39;10.17;;;2.77;;
21890;SDS011;11110;52.386;16.940;2023-01-15T05:54:09;8.20;;;2.30;;
21890;SDS011;11110;52.386;16.940;2023-01-15T05:56:40;13.27;;;2.83;;
21890;SDS011;11110;52.386;16.940;2023-01-15T05:59:09;10.90;;;2.80;;
21890;SDS011;11110;52.386;16.940;2023-01-15T06:01:38;10.43;;;2.70;;
21890;SDS011;11110;52.386;16.940;2023-01-15T06:04:07;10.90;;;2.60;;
21890;SDS011;11110;52.386;16.940;2023-01-15T06:06:37;13.73;;;3.13;;
21890;SDS011;11110;52.386;16.940;2023-01-15T06:09:06;10.83;;;2.67;;
21890;SDS011;11110;52.386;16.940;2023-01-15T06:11:36;12.23;;;3.00;;
21890;SDS011;11110;52.386;16.940;2023-01-15T06:14:05;10.67;;;2.77;;
21890;SDS011;11110;52.386;16.940;2023-01-15T06:16:34;11.37;;;2.80;;
21890;SDS011;11110;52.386;16.940;2023-01-15T06:19:03;14.90;;;3.27;;
21890;SDS011;11110;52.386;16.940;2023-01-15T06:21:33;12.63;;;2.87;;
21890;SDS011;11110;52.386;16.940;2023-01-15T06:24:02;9.13;;;2.60;;
21890;SDS011;11110;52.386;16.940;2023-01-15T06:26:32;8.03;;;2.13;;
21890;SDS011;11110;52.386;16.940;2023-01-15T06:29:02;11.50;;;2.90;;
21890;SDS011;11110;52.386;16.940;2023-01-15T06:31:30;7.80;;;2.23;;
21890;SDS011;11110;52.386;16.940;2023-01-15T06:33:59;10.03;;;2.60;;
21890;SDS011;11110;52.386;16.940;2023-01-15T06:36:27;10.80;;;2.93;;
21890;SDS011;11110;52.386;16.940;2023-01-15T06:38:56;10.97;;;2.60;;
21890;SDS011;11110;52.386;16.940;2023-01-15T06:41:25;11.10;;;2.97;;
21890;SDS011;11110;52.386;16.940;2023-01-15T06:44:13;9.57;;;2.50;;
21890;SDS011;11110;52.386;16.940;2023-01-15T06:47:01;10.93;;;2.73;;
21890;SDS011;11110;52.386;16.940;2023-01-15T06:49:51;12.47;;;3.10;;
21890;SDS011;11110;52.386;16.940;2023-01-15T06:52:21;11.00;;;2.97;;
21890;SDS011;11110;52.386;16.940;2023-01-15T06:54:50;13.27;;;3.20;;
21890;SDS011;11110;52.386;16.940;2023-01-15T06:57:19;12.87;;;3.17;;
21890;SDS011;11110;52.386;16.940;2023-01-15T06:59:49;8.93;;;2.60;;
21890;SDS011;11110;52.386;16.940;2023-01-15T07:02:18;9.50;;;2.93;;
21890;SDS011;11110;52.386;16.940;2023-01-15T07:04:48;8.83;;;2.50;;
21890;SDS011;11110;52.386;16.940;2023-01-15T07:07:18;6.03;;;1.87;;
21890;SDS011;11110;52.386;16.940;2023-01-15T07:09:47;7.77;;;2.37;;
21890;SDS011;11110;52.386;16.940;2023-01-15T07:12:17;10.60;;;2.90;;
21890;SDS011;11110;52.386;16.940;2023-01-15T07:14:46;10.27;;;3.03;;
21890;SDS011;11110;52.386;16.940;2023-01-15T07:17:16;9.23;;;2.57;;
21890;SDS011;11110;52.386;16.940;2023-01-15T07:19:45;10.77;;;3.10;;
21890;SDS011;11110;52.386;16.940;2023-01-15T07:22:14;9.87;;;3.00;;
21890;SDS011;11110;52.386;16.940;2023-01-15T07:24:42;9.93;;;3.00;;
21890;SDS011;11110;52.386;16.940;2023-01-15T07:27:11;10.00;;;3.20;;
21890;SDS011;11110;52.386;16.940;2023-01-15T07:29:39;9.57;;;2.83;;
21890;SDS011;11110;52.386;16.940;2023-01-15T07:32:08;14.90;;;3.47;;
21890;SDS011;11110;52.386;16.940;2023-01-15T07:34:39;10.10;;;2.97;;
21890;SDS011;11110;52.386;16.940;2023-01-15T07:37:07;9.33;;;3.13;;
21890;SDS011;11110;52.386;16.940;2023-01-15T07:39:36;12.33;;;3.47;;
21890;SDS011;11110;52.386;16.940;2023-01-15T07:42:05;8.70;;;3.20;;
21890;SDS011;11110;52.386;16.940;2023-01-15T07:44:54;12.17;;;3.30;;
21890;SDS011;11110;52.386;16.940;2023-01-15T07:47:40;14.67;;;3.67;;
21890;SDS011;11110;52.386;16.940;2023-01-15T07:50:27;10.73;;;3.37;;
21890;SDS011;11110;52.386;16.940;2023-01-15T07:52:56;11.70;;;3.47;;
21890;SDS011;11110;52.386;16.940;2023-01-15T07:55:24;12.60;;;3.50;;
21890;SDS011;11110;52.386;16.940;2023-01-15T07:57:53;8.47;;;2.70;;
21890;SDS011;11110;52.386;16.940;2023-01-15T08:00:22;10.03;;;2.83;;
21890;SDS011;11110;52.386;16.940;2023-01-15T08:02:52;11.17;;;2.87;;
21890;SDS011;11110;52.386;16.940;2023-01-15T08:05:21;8.23;;;2.67;;
21890;SDS011;11110;52.386;16.940;2023-01-15T08:07:51;9.07;;;2.73;;
21890;SDS011;11110;52.386;16.940;2023-01-15T08:10:19;10.00;;;2.80;;
21890;SDS011;11110;52.386;16.940;2023-01-15T08:12:48;9.77;;;2.67;;
21890;SDS011;11110;52.386;16.940;2023-01-15T08:15:37;12.03;;;3.27;;
21890;SDS011;11110;52.386;16.940;2023-01-15T08:18:08;7.87;;;2.43;;
21890;SDS011;11110;52.386;16.940;2023-01-15T08:20:37;9.93;;;2.70;;
21890;SDS011;11110;52.386;16.940;2023-01-15T08:23:07;11.37;;;2.90;;
21890;SDS011;11110;52.386;16.940;2023-01-15T08:25:36;8.37;;;2.57;;
21890;SDS011;11110;52.386;16.940;2023-01-15T08:28:05;8.83;;;2.60;;
21890;SDS011;11110;52.386;16.940;2023-01-15T08:30:33;11.37;;;3.23;;
21890;SDS011;11110;52.386;16.940;2023-01-15T08:33:02;11.00;;;3.00;;
21890;SDS011;11110;52.386;16.940;2023-01-15T08:35:31;8.77;;;2.53;;
21890;SDS011;11110;52.386;16.940;2023-01-15T08:38:02;9.80;;;2.70;;
21890;SDS011;11110;52.386;16.940;2023-01-15T08:40:33;10.80;;;2.50;;
21890;SDS011;11110;52.386;16.940;2023-01-15T08:43:23;10.57;;;2.83;;
21890;SDS011;11110;52.386;16.940;2023-01-15T08:45:51;11.87;;;2.93;;
21890;SDS011;11110;52.386;16.940;2023-01-15T08:48:24;8.33;;;2.70;;
21890;SDS011;11110;52.386;16.940;2023-01-15T08:50:52;12.87;;;3.67;;
21890;SDS011;11110;52.386;16.940;2023-01-15T08:53:21;12.13;;;3.57;;
21890;SDS011;11110;52.386;16.940;2023-01-15T08:55:52;9.10;;;3.17;;
21890;SDS011;11110;52.386;16.940;2023-01-15T08:58:21;14.43;;;3.87;;
21890;SDS011;11110;52.386;16.940;2023-01-15T09:00:49;10.80;;;3.47;;
21890;SDS011;11110;52.386;16.940;2023-01-15T09:03:18;10.90;;;3.50;;
21890;SDS011;11110;52.386;16.940;2023-01-15T09:05:46;11.73;;;2.90;;
21890;SDS011;11110;52.386;16.940;2023-01-15T09:08:15;9.70;;;3.00;;
21890;SDS011;11110;52.386;16.940;2023-01-15T09:10:45;8.97;;;2.50;;
21890;SDS011;11110;52.386;16.940;2023-01-15T09:13:15;10.03;;;3.00;;
21890;SDS011;11110;52.386;16.940;2023-01-15T09:15:44;10.67;;;2.90;;
21890;SDS011;11110;52.386;16.940;2023-01-15T09:18:13;8.17;;;2.07;;
21890;SDS011;11110;52.386;16.940;2023-01-15T09:20:44;8.07;;;2.40;;
21890;SDS011;11110;52.386;16.940;2023-01-15T09:23:13;11.87;;;3.07;;
21890;SDS011;11110;52.386;16.940;2023-01-15T09:25:49;9.53;;;2.77;;
21890;SDS011;11110;52.386;16.940;2023-01-15T09:28:20;10.63;;;3.00;;
21890;SDS011;11110;52.386;16.940;2023-01-15T09:30:49;11.13;;;2.93;;
21890;SDS011;11110;52.386;16.940;2023-01-15T09:33:18;14.07;;;3.60;;
21890;SDS011;11110;52.386;16.940;2023-01-15T09:35:46;9.60;;;2.67;;
21890;SDS011;11110;52.386;16.940;2023-01-15T09:38:16;10.30;;;3.27;;
21890;SDS011;11110;52.386;16.940;2023-01-15T09:40:47;11.67;;;3.23;;
21890;SDS011;11110;52.386;16.940;2023-01-15T09:43:23;9.60;;;2.97;;
21890;SDS011;11110;52.386;16.940;2023-01-15T09:46:03;11.57;;;3.20;;
21890;SDS011;11110;52.386;16.940;2023-01-15T09:48:41;10.87;;;2.77;;
21890;SDS011;11110;52.386;16.940;2023-01-15T09:51:21;11.30;;;2.70;;
21890;SDS011;11110;52.386;16.940;2023-01-15T09:56:48;13.77;;;3.50;;
21890;SDS011;11110;52.386;16.940;2023-01-15T09:59:23;13.77;;;3.43;;
21890;SDS011;11110;52.386;16.940;2023-01-15T10:01:56;15.00;;;3.77;;
21890;SDS011;11110;52.386;16.940;2023-01-15T10:04:31;13.43;;;2.83;;
21890;SDS011;11110;52.386;16.940;2023-01-15T10:07:05;19.53;;;4.83;;
21890;SDS011;11110;52.386;16.940;2023-01-15T10:09:44;11.87;;;3.10;;
21890;SDS011;11110;52.386;16.940;2023-01-15T10:12:18;19.77;;;4.20;;
21890;SDS011;11110;52.386;16.940;2023-01-15T10:15:19;15.50;;;3.77;;
21890;SDS011;11110;52.386;16.940;2023-01-15T10:17:54;17.73;;;3.77;;
21890;SDS011;11110;52.386;16.940;2023-01-15T10:20:38;13.87;;;3.33;;
21890;SDS011;11110;52.386;16.940;2023-01-15T10:26:13;14.27;;;3.70;;
21890;SDS011;11110;52.386;16.940;2023-01-15T10:28:49;12.10;;;3.33;;
21890;SDS011;11110;52.386;16.940;2023-01-15T10:31:30;12.90;;;3.37;;
21890;SDS011;11110;52.386;16.940;2023-01-15T10:34:18;9.37;;;3.20;;
21890;SDS011;11110;52.386;16.940;2023-01-15T10:37:08;10.90;;;3.53;;
21890;SDS011;11110;52.386;16.940;2023-01-15T10:39:46;10.57;;;2.63;;
21890;SDS011;11110;52.386;16.940;2023-01-15T10:42:26;9.50;;;2.70;;
21890;SDS011;11110;52.386;16.940;2023-01-15T10:45:04;7.87;;;2.50;;
21890;SDS011;11110;52.386;16.940;2023-01-15T10:47:41;7.00;;;2.33;;
21890;SDS011;11110;52.386;16.940;2023-01-15T10:50:13;6.93;;;2.37;;
21890;SDS011;11110;52.386;16.940;2023-01-15T10:52:45;11.10;;;3.03;;
21890;SDS011;11110;52.386;16.940;2023-01-15T10:55:18;8.50;;;2.57;;
21890;SDS011;11110;52.386;16.940;2023-01-15T10:57:52;9.60;;;3.00;;
21890;SDS011;11110;52.386;16.940;2023-01-15T11:00:36;10.33;;;3.00;;
21890;SDS011;11110;52.386;16.940;2023-01-15T11:03:09;10.73;;;2.73;;
21890;SDS011;11110;52.386;16.940;2023-01-15T11:05:43;7.37;;;2.50;;
21890;SDS011;11110;52.386;16.940;2023-01-15T11:08:23;9.87;;;3.60;;
21890;SDS011;11110;52.386;16.940;2023-01-15T11:11:17;10.97;;;3.10;;
21890;SDS011;11110;52.386;16.940;2023-01-15T11:14:10;7.30;;;2.23;;
21890;SDS011;11110;52.386;16.940;2023-01-15T11:16:55;6.60;;;2.40;;
21890;SDS011;11110;52.386;16.940;2023-01-15T11:19:43;9.97;;;3.17;;
21890;SDS011;11110;52.386;16.940;2023-01-15T11:22:12;7.13;;;2.67;;
21890;SDS011;11110;52.386;16.940;2023-01-15T11:24:44;8.10;;;3.20;;
21890;SDS011;11110;52.386;16.940;2023-01-15T11:27:15;11.73;;;3.40;;
21890;SDS011;11110;52.386;16.940;2023-01-15T11:29:50;9.67;;;2.90;;
21890;SDS011;11110;52.386;16.940;2023-01-15T11:32:20;9.83;;;3.00;;
21890;SDS011;11110;52.386;16.940;2023-01-15T11:34:57;10.53;;;3.00;;
21890;SDS011;11110;52.386;16.940;2023-01-15T11:37:27;10.40;;;3.37;;
21890;SDS011;11110;52.386;16.940;2023-01-15T11:39:57;8.57;;;2.97;;
21890;SDS011;11110;52.386;16.940;2023-01-15T11:42:35;10.33;;;4.13;;
21890;SDS011;11110;52.386;16.940;2023-01-15T11:45:22;11.60;;;3.50;;
21890;SDS011;11110;52.386;16.940;2023-01-15T11:48:12;11.37;;;3.77;;
21890;SDS011;11110;52.386;16.940;2023-01-15T11:51:05;14.57;;;4.37;;
21890;SDS011;11110;52.386;16.940;2023-01-15T11:53:37;9.63;;;3.50;;
21890;SDS011;11110;52.386;16.940;2023-01-15T11:56:09;10.63;;;4.17;;
21890;SDS011;11110;52.386;16.940;2023-01-15T11:58:43;8.40;;;3.30;;
21890;SDS011;11110;52.386;16.940;2023-01-15T12:01:19;10.87;;;3.60;;
21890;SDS011;11110;52.386;16.940;2023-01-15T12:03:52;10.00;;;3.43;;
21890;SDS011;11110;52.386;16.940;2023-01-15T12:06:23;11.30;;;4.43;;
21890;SDS011;11110;52.386;16.940;2023-01-15T12:08:55;13.07;;;5.03;;
21890;SDS011;11110;52.386;16.940;2023-01-15T12:11:53;15.07;;;5.47;;
21890;SDS011;11110;52.386;16.940;2023-01-15T12:14:42;17.50;;;4.93;;
21890;SDS011;11110;52.386;16.940;2023-01-15T12:17:37;19.73;;;5.20;;
21890;SDS011;11110;52.386;16.940;2023-01-15T12:20:23;14.63;;;4.73;;
21890;SDS011;11110;52.386;16.940;2023-01-15T12:23:01;15.77;;;5.20;;
21890;SDS011;11110;52.386;16.940;2023-01-15T12:25:54;16.83;;;4.97;;
21890;SDS011;11110;52.386;16.940;2023-01-15T12:28:30;17.70;;;5.90;;
21890;SDS011;11110;52.386;16.940;2023-01-15T12:31:04;18.63;;;6.00;;
21890;SDS011;11110;52.386;16.940;2023-01-15T12:33:40;15.63;;;5.07;;
21890;SDS011;11110;52.386;16.940;2023-01-15T12:36:14;15.50;;;4.57;;
21890;SDS011;11110;52.386;16.940;2023-01-15T12:38:50;19.63;;;5.10;;
21890;SDS011;11110;52.386;16.940;2023-01-15T12:41:23;17.00;;;4.73;;
21890;SDS011;11110;52.386;16.940;2023-01-15T12:44:17;13.73;;;4.73;;
21890;SDS011;11110;52.386;16.940;2023-01-15T12:47:13;17.27;;;4.90;;
21890;SDS011;11110;52.386;16.940;2023-01-15T12:49:47;15.47;;;4.67;;
21890;SDS011;11110;52.386;16.940;2023-01-15T12:52:21;14.70;;;4.50;;
21890;SDS011;11110;52.386;16.940;2023-01-15T12:54:57;13.10;;;4.83;;
21890;SDS011;11110;52.386;16.940;2023-01-15T12:57:34;13.83;;;4.70;;
21890;SDS011;11110;52.386;16.940;2023-01-15T13:00:04;14.20;;;4.27;;
21890;SDS011;11110;52.386;16.940;2023-01-15T13:02:39;21.43;;;8.47;;
21890;SDS011;11110;52.386;16.940;2023-01-15T13:05:26;15.33;;;4.10;;
21890;SDS011;11110;52.386;16.940;2023-01-15T13:07:58;11.63;;;3.87;;
21890;SDS011;11110;52.386;16.940;2023-01-15T13:10:34;12.10;;;3.77;;
21890;SDS011;11110;52.386;16.940;2023-01-15T13:13:10;9.53;;;3.37;;
21890;SDS011;11110;52.386;16.940;2023-01-15T13:15:50;15.93;;;4.20;;
21890;SDS011;11110;52.386;16.940;2023-01-15T13:18:25;12.20;;;4.10;;
21890;SDS011;11110;52.386;16.940;2023-01-15T13:21:03;12.07;;;3.73;;
21890;SDS011;11110;52.386;16.940;2023-01-15T13:23:42;15.77;;;4.20;;
21890;SDS011;11110;52.386;16.940;2023-01-15T13:26:39;17.60;;;4.53;;
21890;SDS011;11110;52.386;16.940;2023-01-15T13:29:37;14.53;;;4.37;;
21890;SDS011;11110;52.386;16.940;2023-01-15T13:32:17;13.93;;;4.63;;
21890;SDS011;11110;52.386;16.940;2023-01-15T13:34:50;13.53;;;4.13;;
21890;SDS011;11110;52.386;16.940;2023-01-15T13:37:24;15.20;;;4.77;;
21890;SDS011;11110;52.386;16.940;2023-01-15T13:39:55;15.30;;;5.50;;
21890;SDS011;11110;52.386;16.940;2023-01-15T13:42:31;16.80;;;5.27;;
21890;SDS011;11110;52.386;16.940;2023-01-15T13:45:02;15.97;;;4.43;;
21890;SDS011;11110;52.386;16.940;2023-01-15T13:47:36;14.30;;;4.43;;
21890;SDS011;11110;52.386;16.940;2023-01-15T13:50:12;13.20;;;3.87;;
21890;SDS011;11110;52.386;16.940;2023-01-15T13:52:45;10.73;;;3.43;;
21890;SDS011;11110;52.386;16.940;2023-01-15T13:55:18;14.03;;;3.93;;
21890;SDS011;11110;52.386;16.940;2023-01-15T13:57:54;12.13;;;3.60;;
21890;SDS011;11110;52.386;16.940;2023-01-15T14:00:27;13.60;;;4.10;;
21890;SDS011;11110;52.386;16.940;2023-01-15T14:02:58;19.00;;;4.73;;
21890;SDS011;11110;52.386;16.940;2023-01-15T14:05:29;15.20;;;4.30;;
21890;SDS011;11110;52.386;16.940;2023-01-15T14:07:59;14.73;;;4.70;;
21890;SDS011;11110;52.386;16.940;2023-01-15T14:10:34;25.97;;;6.17;;
21890;SDS011;11110;52.386;16.940;2023-01-15T14:13:15;13.13;;;4.50;;
21890;SDS011;11110;52.386;16.940;2023-01-15T14:16:16;15.50;;;4.83;;
21890;SDS011;11110;52.386;16.940;2023-01-15T14:21:58;18.93;;;6.77;;
21890;SDS011;11110;52.386;16.940;2023-01-15T14:27:52;20.67;;;6.63;;
21890;SDS011;11110;52.386;16.940;2023-01-15T14:30:36;17.90;;;6.23;;
21890;SDS011;11110;52.386;16.940;2023-01-15T14:33:25;18.53;;;7.10;;
21890;SDS011;11110;52.386;16.940;2023-01-15T14:36:07;25.23;;;7.33;;
21890;SDS011;11110;52.386;16.940;2023-01-15T14:38:43;21.90;;;7.67;;
21890;SDS011;11110;52.386;16.940;2023-01-15T14:41:15;26.73;;;8.87;;
21890;SDS011;11110;52.386;16.940;2023-01-15T14:43:52;28.07;;;9.33;;
21890;SDS011;11110;52.386;16.940;2023-01-15T14:46:23;28.07;;;8.93;;
21890;SDS011;11110;52.386;16.940;2023-01-15T14:48:54;31.13;;;9.67;;
21890;SDS011;11110;52.386;16.940;2023-01-15T14:51:25;29.87;;;10.33;;
21890;SDS011;11110;52.386;16.940;2023-01-15T14:53:56;24.03;;;9.30;;
21890;SDS011;11110;52.386;16.940;2023-01-15T14:56:29;22.37;;;8.33;;
21890;SDS011;11110;52.386;16.940;2023-01-15T14:59:02;26.63;;;8.83;;
21890;SDS011;11110;52.386;16.940;2023-01-15T15:01:42;23.53;;;7.87;;
21890;SDS011;11110;52.386;16.940;2023-01-15T15:04:17;20.57;;;7.30;;
21890;SDS011;11110;52.386;16.940;2023-01-15T15:06:58;27.13;;;7.57;;
21890;SDS011;11110;52.386;16.940;2023-01-15T15:09:31;20.67;;;7.17;;
21890;SDS011;11110;52.386;16.940;2023-01-15T15:12:13;20.77;;;6.90;;
21890;SDS011;11110;52.386;16.940;2023-01-15T15:14:57;27.93;;;7.83;;
21890;SDS011;11110;52.386;16.940;2023-01-15T15:17:34;24.10;;;6.20;;
21890;SDS011;11110;52.386;16.940;2023-01-15T15:20:22;17.23;;;5.37;;